Airfield :







YOU CAN JOIN US ON...

 
LOGIN :

Register | Disclaimer

   EN    FR    IT 

 









Legend :    VFR   Marginal VFR   IFR   Intensive IFR   Very Intensive IFR
Visi :
Ceiling :
>= 8 km
>= 3000ft
5 to 8 km
1000 to 3000 ft
1500m to 5 km
500 to 1000 ft
800 to 1500m
200 to 500 ft
< 800m
< 200 ft
Symbols :   Thunderstorms  Fog  Heavy snow  Heavy precipitations  Wind > 20 kt






- Airport Elevation : 71 ft
- IATA code : YBC


CYBC - Baie Comeau

CURRENT METAR :
  • 120547Z AUTO 29005KT 9SM -SN BKN035 OVC043 M08/M10 A2999 RMK SLP158

EXPIRED METARs :
  • 120533Z AUTO 31006KT 280V340 7SM -SN BKN025 BKN034 OVC043 M08/M10 A2999 RMK SLP158
  • 120527Z AUTO 31005KT 3SM -SN BKN021 OVC034 M08/M10 A2998 RMK SLP157
  • 120502Z AUTO 30005KT 270V340 1 3/4SM -SN BKN019 OVC030 M07/M10 A2999 RMK SLP158
  • 120456Z AUTO 30004KT 270V340 5SM -SN BKN024 OVC032 M07/M10 A2998 RMK SLP157
  • 120422Z AUTO 22013G18KT 9SM -SN OVC030 M06/M11 A2999 RMK SLP158
  • 120400Z AUTO 22013G19KT 9SM OVC032 M06/M11 A2999 RMK SLP161
  • 120324Z AUTO 22011G18KT 9SM FEW029 OVC036 M07/M11 A3000 RMK SLP163

TAF TAF CYBC
Valid from the 12 at 02:00 until the 12 at 14:00 UTC


120138Z 1202/1214 VRB03KT P6SM -SN BKN030 BKN100
TEMPO 1202/1208 11/2SM -SN OVC020
BECMG 1206/1208 28020G35KT
FM120800 28020G35KT P6SM SCT030 BKN080
TEMPO 1208/1210 4SM -SHSN BLSN BKN030 RMK FCST BASED ON AUTO OBS. NXT FCST BY 120800Z



MET'MAP, your aeronautical weather chart ! - Copyright ORBIFLY December 2007 - Disclaimer

ORBIFLY MET'MAP TEAM :

Programming & Development : Alexandra Zaïnal
Concept & original design : Baudouin d'Aumeries
Assistance for programming : Marc-Olivier Méhu
Technical & hardware support : Manuel Goepfert

Contact : metmap@orbifly.com




SOURCES & CREDITS :

   NOAA